Time;durP1;ratioP1;P1;durP2;ratioP2;P2;SDS_P1;SDS_P2;PMS_P1;PMS_P2;Temp;Humidity;BMP_temperature;BMP_pressure;BME280_temperature;BME280_humidity;BME280_pressure;Samples;Min_cycle;Max_cycle;Signal;HPM_P1;HPM_P2
2022/10/16 00:01:55;;;;;;;;;;;15.10;99.90;;;;;;5075693;28;19905;-75
2022/10/16 00:04:20;;;;;;;;;;;15.10;99.90;;;;;;5075643;28;19996;-76
2022/10/16 00:06:46;;;;;;;;;;;15.10;99.90;;;;;;5075681;28;19904;-76
2022/10/16 00:09:11;;;;;;;;;;;15.10;99.90;;;;;;5075331;28;19912;-76
2022/10/16 00:11:38;;;;;;;;;;;15.10;99.90;;;;;;5075688;28;19905;-76
2022/10/16 00:14:06;;;;;;;;;;;15.10;99.90;;;;;;5075551;28;19924;-75
2022/10/16 00:16:33;;;;;;;;;;;15.10;99.90;;;;;;5075205;28;19909;-77
2022/10/16 00:18:59;;;;;;;;;;;15.10;99.90;;;;;;5075648;28;19948;-77
2022/10/16 00:21:26;;;;;;;;;;;15.10;99.90;;;;;;5075545;28;19949;-74
2022/10/16 00:23:56;;;;;;;;;;;15.10;99.90;;;;;;5075133;28;20256;-76
2022/10/16 00:26:22;;;;;;;;;;;15.10;99.90;;;;;;5075360;28;19990;-76
2022/10/16 00:28:49;;;;;;;;;;;15.10;99.90;;;;;;5075616;28;20352;-75
2022/10/16 00:31:15;;;;;;;;;;;15.00;99.90;;;;;;5075428;28;19905;-75
2022/10/16 00:33:40;;;;;;;;;;;15.00;99.90;;;;;;5057151;28;19915;-76
2022/10/16 00:36:07;;;;;;;;;;;15.00;99.90;;;;;;5075150;28;20263;-76
2022/10/16 00:38:33;;;;;;;;;;;15.00;99.90;;;;;;5075544;28;20201;-75
2022/10/16 00:40:58;;;;;;;;;;;15.00;99.90;;;;;;5057112;28;19915;-75
2022/10/16 00:43:34;;;;;;;;;;;14.90;99.90;;;;;;5074848;28;20418;-74
2022/10/16 00:46:01;;;;;;;;;;;14.90;99.90;;;;;;5074473;28;19905;-75
2022/10/16 00:48:26;;;;;;;;;;;14.80;99.90;;;;;;5073990;28;20252;-75
2022/10/16 00:50:53;;;;;;;;;;;14.80;99.90;;;;;;5074586;28;19904;-76
2022/10/16 00:53:19;;;;;;;;;;;14.80;99.90;;;;;;5073955;28;20582;-75
2022/10/16 00:55:45;;;;;;;;;;;14.80;99.90;;;;;;5074388;28;19917;-75
2022/10/16 00:58:11;;;;;;;;;;;14.80;99.90;;;;;;5074087;28;20007;-76
2022/10/16 01:00:37;;;;;;;;;;;14.80;99.90;;;;;;5073539;28;20387;-76
2022/10/16 01:03:03;;;;;;;;;;;14.70;99.90;;;;;;5074402;28;19909;-76
2022/10/16 01:05:44;;;;;;;;;;;14.80;99.90;;;;;;5074233;28;19998;-75
2022/10/16 01:08:15;;;;;;;;;;;14.80;99.90;;;;;;5074524;28;19922;-75
2022/10/16 01:10:45;;;;;;;;;;;14.80;99.90;;;;;;5074325;28;19908;-77
2022/10/16 01:13:12;;;;;;;;;;;14.80;99.90;;;;;;5073824;28;19916;-76
2022/10/16 01:15:48;;;;;;;;;;;14.70;99.90;;;;;;5074016;28;19920;-76
2022/10/16 01:18:17;;;;;;;;;;;14.70;99.90;;;;;;5073434;28;19923;-76
2022/10/16 01:20:53;;;;;;;;;;;14.70;99.90;;;;;;5073952;28;20277;-76
2022/10/16 01:23:25;;;;;;;;;;;14.70;99.90;;;;;;5071419;28;19905;-76
2022/10/16 01:25:56;;;;;;;;;;;14.70;99.90;;;;;;5073602;28;19912;-75
2022/10/16 01:28:23;;;;;;;;;;;14.70;99.90;;;;;;5055335;28;20406;-74
2022/10/16 01:30:51;;;;;;;;;;;14.70;99.90;;;;;;5073500;28;19908;-76
2022/10/16 01:33:18;;;;;;;;;;;14.60;99.90;;;;;;5070398;28;19952;-76
2022/10/16 01:35:51;;;;;;;;;;;14.60;99.90;;;;;;5073197;28;19916;-76
2022/10/16 01:38:37;;;;;;;;;;;14.60;99.90;;;;;;5070355;28;19905;-75
2022/10/16 01:41:06;;;;;;;;;;;14.60;99.90;;;;;;5051991;28;19963;-75
2022/10/16 01:43:35;;;;;;;;;;;14.50;99.90;;;;;;5053073;28;19957;-75
2022/10/16 01:46:01;;;;;;;;;;;14.50;99.90;;;;;;5055513;28;19904;-76
2022/10/16 01:48:26;;;;;;;;;;;14.60;99.90;;;;;;5072849;28;20029;-76
2022/10/16 01:50:59;;;;;;;;;;;14.60;99.90;;;;;;5072863;28;20356;-75
2022/10/16 01:53:25;;;;;;;;;;;14.60;99.90;;;;;;5071777;28;20378;-75
2022/10/16 01:55:52;;;;;;;;;;;14.60;99.90;;;;;;5073127;28;20003;-75
2022/10/16 01:58:17;;;;;;;;;;;14.70;99.90;;;;;;5072229;28;19905;-75
2022/10/16 02:00:44;;;;;;;;;;;14.70;99.90;;;;;;5072443;28;20331;-75
2022/10/16 02:03:10;;;;;;;;;;;14.70;99.90;;;;;;5071910;28;19904;-76
2022/10/16 02:05:42;;;;;;;;;;;14.80;99.90;;;;;;5072419;28;20237;-76
2022/10/16 02:08:08;;;;;;;;;;;14.80;99.90;;;;;;5070070;28;20344;-75
2022/10/16 02:10:35;;;;;;;;;;;14.80;99.90;;;;;;5072985;28;19908;-76
2022/10/16 02:13:03;;;;;;;;;;;14.80;99.90;;;;;;5072775;28;19920;-77
2022/10/16 02:15:28;;;;;;;;;;;14.80;99.90;;;;;;5069890;28;20259;-76
2022/10/16 02:17:54;;;;;;;;;;;14.80;99.90;;;;;;5072477;28;19995;-76
2022/10/16 02:20:22;;;;;;;;;;;14.70;99.90;;;;;;5072828;28;19904;-78
2022/10/16 02:22:49;;;;;;;;;;;14.60;99.90;;;;;;5070118;28;19912;-75
2022/10/16 02:25:21;;;;;;;;;;;14.60;99.90;;;;;;5072720;28;19908;-76
2022/10/16 02:27:59;;;;;;;;;;;14.50;99.90;;;;;;5070116;28;19911;-76
2022/10/16 02:30:27;;;;;;;;;;;14.50;99.90;;;;;;5072436;28;19911;-76
2022/10/16 02:32:53;;;;;;;;;;;14.50;99.90;;;;;;5054485;28;19965;-76
2022/10/16 02:35:20;;;;;;;;;;;14.40;99.90;;;;;;5072625;28;20332;-76
2022/10/16 02:37:47;;;;;;;;;;;14.40;99.90;;;;;;5072958;28;19908;-76
2022/10/16 02:40:13;;;;;;;;;;;14.40;99.90;;;;;;5073252;28;19904;-76
2022/10/16 02:42:39;;;;;;;;;;;14.40;99.90;;;;;;5072860;28;19974;-75
2022/10/16 02:45:06;;;;;;;;;;;14.40;99.90;;;;;;5054754;28;20260;-76
2022/10/16 02:47:31;;;;;;;;;;;14.40;99.90;;;;;;5073199;28;19904;-76
2022/10/16 02:49:57;;;;;;;;;;;14.40;99.90;;;;;;5073326;28;19912;-77
2022/10/16 02:52:22;;;;;;;;;;;14.40;99.90;;;;;;5072949;28;20350;-76
2022/10/16 02:54:48;;;;;;;;;;;14.30;99.90;;;;;;5072999;28;19967;-76
2022/10/16 02:57:13;;;;;;;;;;;14.30;99.90;;;;;;5072901;28;19978;-76
2022/10/16 02:59:39;;;;;;;;;;;14.30;99.90;;;;;;5072760;28;19958;-76
2022/10/16 03:02:04;;;;;;;;;;;14.30;99.90;;;;;;5073093;28;19904;-76
2022/10/16 03:04:30;;;;;;;;;;;14.30;99.90;;;;;;5072956;28;19911;-77
2022/10/16 03:06:55;;;;;;;;;;;14.30;99.90;;;;;;5072985;28;19909;-76
2022/10/16 03:09:21;;;;;;;;;;;14.30;99.90;;;;;;5073114;28;19908;-76
2022/10/16 03:11:46;;;;;;;;;;;14.30;99.90;;;;;;5072988;28;19961;-75
2022/10/16 03:14:11;;;;;;;;;;;14.40;99.90;;;;;;5072432;28;20351;-76
2022/10/16 03:16:37;;;;;;;;;;;14.40;99.90;;;;;;5072881;28;19908;-75
2022/10/16 03:19:02;;;;;;;;;;;14.50;99.90;;;;;;5072869;28;19905;-75
2022/10/16 03:21:28;;;;;;;;;;;14.50;99.90;;;;;;5072814;28;19905;-76
2022/10/16 03:23:53;;;;;;;;;;;14.50;99.90;;;;;;5072959;28;19915;-77
2022/10/16 03:26:19;;;;;;;;;;;14.50;99.90;;;;;;5072863;28;19905;-77
2022/10/16 03:28:44;;;;;;;;;;;14.50;99.90;;;;;;5074060;28;20348;-77
2022/10/16 03:31:10;;;;;;;;;;;14.50;99.90;;;;;;5076100;28;19959;-77
2022/10/16 03:33:35;;;;;;;;;;;14.50;99.90;;;;;;5076236;28;20335;-78
2022/10/16 03:36:01;;;;;;;;;;;14.50;99.90;;;;;;5076356;28;20351;-77
2022/10/16 03:38:26;;;;;;;;;;;14.50;99.90;;;;;;5076537;28;19909;-77
2022/10/16 03:40:52;;;;;;;;;;;14.50;99.90;;;;;;5075970;28;19904;-77
2022/10/16 03:43:17;;;;;;;;;;;14.40;99.90;;;;;;5076348;28;19904;-77
2022/10/16 03:45:42;;;;;;;;;;;14.40;99.90;;;;;;5076008;28;20329;-77
2022/10/16 03:48:08;;;;;;;;;;;14.40;99.90;;;;;;5075736;28;19904;-75
2022/10/16 03:50:33;;;;;;;;;;;14.40;99.90;;;;;;5076121;28;19908;-76
2022/10/16 03:52:59;;;;;;;;;;;14.40;99.90;;;;;;5076006;28;19904;-76
2022/10/16 03:55:24;;;;;;;;;;;14.30;99.90;;;;;;5075777;28;19916;-76
2022/10/16 03:57:50;;;;;;;;;;;14.40;99.90;;;;;;5075282;28;19959;-75
2022/10/16 04:00:15;;;;;;;;;;;14.40;99.90;;;;;;5058058;28;19908;-76
2022/10/16 04:02:41;;;;;;;;;;;14.40;99.90;;;;;;5075550;28;19904;-75
2022/10/16 04:05:06;;;;;;;;;;;14.40;99.90;;;;;;5075555;28;19908;-77
2022/10/16 04:07:32;;;;;;;;;;;14.40;99.90;;;;;;5075617;28;19914;-76
2022/10/16 04:09:58;;;;;;;;;;;14.40;99.90;;;;;;5075770;28;19915;-75
2022/10/16 04:12:25;;;;;;;;;;;14.40;99.90;;;;;;5074909;28;20007;-75
2022/10/16 04:14:50;;;;;;;;;;;14.40;99.90;;;;;;5057277;28;20016;-76
2022/10/16 04:17:15;;;;;;;;;;;14.40;99.90;;;;;;5075242;28;19996;-76
2022/10/16 04:19:41;;;;;;;;;;;14.40;99.90;;;;;;5057248;28;19966;-75
2022/10/16 04:22:06;;;;;;;;;;;14.30;99.90;;;;;;5075230;28;19908;-77
2022/10/16 04:24:32;;;;;;;;;;;14.30;99.90;;;;;;5075188;28;19909;-76
2022/10/16 04:26:57;;;;;;;;;;;14.30;99.90;;;;;;5074942;28;19953;-74
2022/10/16 04:29:23;;;;;;;;;;;14.30;99.90;;;;;;5057138;28;19998;-76
2022/10/16 04:31:48;;;;;;;;;;;14.30;99.90;;;;;;5074888;28;19944;-76
2022/10/16 04:34:14;;;;;;;;;;;14.30;99.90;;;;;;5074683;28;19908;-77
2022/10/16 04:36:39;;;;;;;;;;;14.20;99.90;;;;;;5074866;28;19908;-78
2022/10/16 04:39:05;;;;;;;;;;;14.30;99.90;;;;;;5074875;28;20305;-78
2022/10/16 04:41:30;;;;;;;;;;;14.30;99.90;;;;;;5073876;28;19912;-77
2022/10/16 04:43:56;;;;;;;;;;;14.30;99.90;;;;;;5074515;28;20337;-76
2022/10/16 04:46:21;;;;;;;;;;;14.30;99.90;;;;;;5074789;28;19905;-77
2022/10/16 04:48:46;;;;;;;;;;;14.30;99.90;;;;;;5075048;28;19999;-77
2022/10/16 04:51:12;;;;;;;;;;;14.30;99.90;;;;;;5074811;28;19908;-77
2022/10/16 04:53:37;;;;;;;;;;;14.30;99.90;;;;;;5074385;28;19908;-76
2022/10/16 04:56:03;;;;;;;;;;;14.30;99.90;;;;;;5074658;28;19913;-77
2022/10/16 04:58:29;;;;;;;;;;;14.20;99.90;;;;;;5074430;28;20340;-77
2022/10/16 05:00:54;;;;;;;;;;;14.20;99.90;;;;;;5074543;28;19909;-77
2022/10/16 05:03:19;;;;;;;;;;;14.30;99.90;;;;;;5074620;28;20265;-77
2022/10/16 05:05:46;;;;;;;;;;;14.30;99.90;;;;;;5074550;28;19905;-76
2022/10/16 05:08:15;;;;;;;;;;;14.30;99.90;;;;;;5074663;28;19912;-77
2022/10/16 05:10:41;;;;;;;;;;;14.30;99.90;;;;;;5074614;28;19904;-79
2022/10/16 05:13:07;;;;;;;;;;;14.40;99.90;;;;;;5074099;28;19918;-78
2022/10/16 05:15:33;;;;;;;;;;;14.30;99.90;;;;;;5074325;28;19916;-76
2022/10/16 05:17:58;;;;;;;;;;;14.30;99.90;;;;;;5074165;28;19908;-78
2022/10/16 05:20:24;;;;;;;;;;;14.30;99.90;;;;;;5074374;28;19915;-78
2022/10/16 05:22:49;;;;;;;;;;;14.30;99.90;;;;;;5074252;28;19939;-78
2022/10/16 05:25:15;;;;;;;;;;;14.20;99.90;;;;;;5073960;28;19912;-79
2022/10/16 05:27:41;;;;;;;;;;;14.20;99.90;;;;;;5074239;28;20063;-79
2022/10/16 05:30:07;;;;;;;;;;;14.20;99.90;;;;;;5074175;28;19904;-79
2022/10/16 05:32:33;;;;;;;;;;;14.20;99.90;;;;;;5074042;28;19904;-79
2022/10/16 05:34:59;;;;;;;;;;;14.10;99.90;;;;;;5074130;28;20027;-80
2022/10/16 05:37:25;;;;;;;;;;;14.10;99.90;;;;;;5073990;28;19904;-81
2022/10/16 05:39:51;;;;;;;;;;;14.10;99.90;;;;;;5073462;28;20322;-76
2022/10/16 05:42:16;;;;;;;;;;;14.10;99.90;;;;;;5073706;28;19994;-76
2022/10/16 05:44:42;;;;;;;;;;;14.10;99.90;;;;;;5073697;28;19927;-75
2022/10/16 05:47:07;;;;;;;;;;;14.00;99.90;;;;;;5073792;28;20276;-79
2022/10/16 05:49:33;;;;;;;;;;;14.00;99.90;;;;;;5073767;28;19927;-76
2022/10/16 05:51:58;;;;;;;;;;;14.00;99.90;;;;;;5054863;28;19919;-79
2022/10/16 05:54:24;;;;;;;;;;;13.90;99.90;;;;;;5073425;28;20275;-77
2022/10/16 05:56:49;;;;;;;;;;;13.90;99.90;;;;;;5073696;28;19905;-79
2022/10/16 05:59:15;;;;;;;;;;;13.90;99.90;;;;;;5055680;28;19908;-75
2022/10/16 06:01:40;;;;;;;;;;;13.90;99.90;;;;;;5073666;28;19904;-79
2022/10/16 06:04:06;;;;;;;;;;;13.80;99.90;;;;;;5073691;28;19904;-76
2022/10/16 06:06:31;;;;;;;;;;;13.80;99.90;;;;;;5073646;28;19927;-78
2022/10/16 06:08:57;;;;;;;;;;;13.80;99.90;;;;;;5073592;28;19957;-75
2022/10/16 06:11:24;;;;;;;;;;;13.80;99.90;;;;;;5073504;28;19999;-78
2022/10/16 06:13:50;;;;;;;;;;;13.80;99.90;;;;;;5073476;28;20357;-77
2022/10/16 06:16:15;;;;;;;;;;;13.80;99.90;;;;;;5073498;28;20007;-77
2022/10/16 06:18:41;;;;;;;;;;;13.70;99.90;;;;;;5073339;28;19996;-76
2022/10/16 06:21:07;;;;;;;;;;;13.80;99.90;;;;;;5055071;28;20267;-76
2022/10/16 06:23:33;;;;;;;;;;;13.70;99.90;;;;;;5072858;28;19959;-78
2022/10/16 06:26:24;;;;;;;;;;;13.70;99.90;;;;;;5072906;28;19908;-76
2022/10/16 06:28:50;;;;;;;;;;;13.80;99.90;;;;;;5069721;28;19911;-76
2022/10/16 06:31:16;;;;;;;;;;;13.80;99.90;;;;;;5072798;28;19905;-77
2022/10/16 06:33:42;;;;;;;;;;;13.80;99.90;;;;;;5073084;28;19904;-78
2022/10/16 06:36:12;;;;;;;;;;;13.80;99.90;;;;;;5073348;28;19919;-78
2022/10/16 06:38:37;;;;;;;;;;;13.80;99.90;;;;;;5073216;28;19973;-76
2022/10/16 06:41:03;;;;;;;;;;;13.80;99.90;;;;;;5073170;28;20358;-77
2022/10/16 06:43:32;;;;;;;;;;;13.90;99.90;;;;;;5073282;28;20358;-79
2022/10/16 06:45:58;;;;;;;;;;;13.80;99.90;;;;;;5073224;28;20389;-79
2022/10/16 06:48:24;;;;;;;;;;;13.80;99.90;;;;;;5072869;28;19919;-77
2022/10/16 06:51:04;;;;;;;;;;;13.80;99.90;;;;;;5072996;28;19904;-76
2022/10/16 06:53:30;;;;;;;;;;;13.80;99.90;;;;;;5072646;28;19909;-79
2022/10/16 06:55:56;;;;;;;;;;;13.80;99.90;;;;;;5072703;28;19954;-77
2022/10/16 06:58:21;;;;;;;;;;;13.70;99.90;;;;;;5072731;28;19904;-77
2022/10/16 07:00:47;;;;;;;;;;;13.70;99.90;;;;;;5072868;28;19904;-76
2022/10/16 07:03:13;;;;;;;;;;;13.70;99.90;;;;;;5073747;28;19954;-76
2022/10/16 07:05:39;;;;;;;;;;;13.70;99.90;;;;;;5076570;28;19936;-77
2022/10/16 07:08:05;;;;;;;;;;;13.70;99.90;;;;;;5076569;28;19955;-78
2022/10/16 07:10:31;;;;;;;;;;;13.70;99.90;;;;;;5076760;28;19908;-79
2022/10/16 07:12:56;;;;;;;;;;;13.80;99.90;;;;;;5076600;28;19923;-77
2022/10/16 07:15:22;;;;;;;;;;;13.90;99.90;;;;;;5076770;28;19919;-78
2022/10/16 07:17:47;;;;;;;;;;;14.00;99.90;;;;;;5076323;28;19904;-79
2022/10/16 07:20:13;;;;;;;;;;;14.10;99.90;;;;;;5076055;28;19912;-78
2022/10/16 07:22:38;;;;;;;;;;;14.20;99.90;;;;;;5076056;28;19905;-79
2022/10/16 07:25:04;;;;;;;;;;;14.30;99.90;;;;;;5076437;28;19909;-76
2022/10/16 07:27:29;;;;;;;;;;;14.40;99.90;;;;;;5076662;28;19954;-77
2022/10/16 07:29:55;;;;;;;;;;;14.50;99.90;;;;;;5076348;28;19908;-76
2022/10/16 07:32:20;;;;;;;;;;;14.60;99.90;;;;;;5076187;28;19950;-78
2022/10/16 07:34:46;;;;;;;;;;;14.70;99.90;;;;;;5076258;28;20397;-76
2022/10/16 07:37:11;;;;;;;;;;;14.80;99.90;;;;;;5058402;28;19904;-77
2022/10/16 07:39:36;;;;;;;;;;;14.80;99.90;;;;;;5076668;28;19904;-76
2022/10/16 07:42:02;;;;;;;;;;;14.90;99.90;;;;;;5076132;28;19987;-78
2022/10/16 07:44:27;;;;;;;;;;;14.90;99.90;;;;;;5076098;28;19912;-76
2022/10/16 07:46:53;;;;;;;;;;;15.00;99.90;;;;;;5076216;28;19912;-76
2022/10/16 07:49:18;;;;;;;;;;;15.00;99.90;;;;;;5076484;28;19904;-78
2022/10/16 07:51:44;;;;;;;;;;;15.10;99.90;;;;;;5076471;28;19947;-76
2022/10/16 07:54:09;;;;;;;;;;;15.00;99.90;;;;;;5058542;28;20022;-77
2022/10/16 07:56:35;;;;;;;;;;;15.00;99.90;;;;;;5076907;28;19913;-76
2022/10/16 07:59:00;;;;;;;;;;;14.90;99.90;;;;;;5059309;28;19911;-76
2022/10/16 08:01:26;;;;;;;;;;;14.90;99.90;;;;;;5076908;28;20247;-78
2022/10/16 08:03:51;;;;;;;;;;;14.90;99.90;;;;;;5077552;28;19991;-77
2022/10/16 08:06:18;;;;;;;;;;;15.10;99.90;;;;;;5075950;28;19904;-78
2022/10/16 08:08:43;;;;;;;;;;;15.30;99.90;;;;;;5075576;28;19909;-76
2022/10/16 08:11:09;;;;;;;;;;;15.40;99.90;;;;;;5075784;28;20367;-78
2022/10/16 08:13:34;;;;;;;;;;;15.50;99.90;;;;;;5075654;28;19928;-78
2022/10/16 08:16:01;;;;;;;;;;;15.80;99.90;;;;;;5074802;28;19923;-77
2022/10/16 08:18:26;;;;;;;;;;;16.10;99.90;;;;;;5075664;28;19904;-76
2022/10/16 08:20:58;;;;;;;;;;;16.20;99.90;;;;;;5075776;28;19911;-77
2022/10/16 08:23:25;;;;;;;;;;;16.30;99.90;;;;;;5075730;28;19912;-78
2022/10/16 08:25:52;;;;;;;;;;;16.30;99.90;;;;;;5075431;28;19909;-76
2022/10/16 08:28:17;;;;;;;;;;;16.20;99.90;;;;;;5075199;28;19909;-78
2022/10/16 08:30:43;;;;;;;;;;;16.40;99.90;;;;;;5075405;28;20236;-78
2022/10/16 08:33:08;;;;;;;;;;;16.40;99.90;;;;;;5075390;28;19950;-78
2022/10/16 08:35:34;;;;;;;;;;;16.60;99.90;;;;;;5075278;28;19916;-77
2022/10/16 08:37:59;;;;;;;;;;;16.90;99.90;;;;;;5076436;28;19910;-76
2022/10/16 08:40:25;;;;;;;;;;;17.10;99.90;;;;;;5076035;28;20354;-76
2022/10/16 08:42:52;;;;;;;;;;;17.20;99.90;;;;;;5058440;28;19909;-76
2022/10/16 08:45:33;;;;;;;;;;;17.20;99.90;;;;;;5074918;28;20358;-78
2022/10/16 08:48:17;;;;;;;;;;;17.10;99.90;;;;;;5075120;28;20294;-76
2022/10/16 08:50:43;;;;;;;;;;;17.40;99.90;;;;;;5074724;28;19908;-78
2022/10/16 08:53:14;;;;;;;;;;;18.00;99.90;;;;;;5075171;28;19904;-75
2022/10/16 08:55:43;;;;;;;;;;;18.90;99.90;;;;;;5074909;28;20007;-78
2022/10/16 08:58:11;;;;;;;;;;;19.60;99.90;;;;;;5056914;28;20359;-78
2022/10/16 09:00:37;;;;;;;;;;;19.70;99.90;;;;;;5074855;28;20352;-76
2022/10/16 09:03:03;;;;;;;;;;;19.40;99.90;;;;;;5074817;28;19904;-76
2022/10/16 09:05:31;;;;;;;;;;;19.20;99.90;;;;;;5074733;28;20302;-76
2022/10/16 09:08:10;;;;;;;;;;;19.70;99.90;;;;;;5074620;28;19909;-76
2022/10/16 09:10:46;;;;;;;;;;;20.30;99.90;;;;;;5074364;28;20232;-77
2022/10/16 09:13:20;;;;;;;;;;;20.80;99.90;;;;;;5074237;28;20400;-76
2022/10/16 09:15:54;;;;;;;;;;;21.50;99.20;;;;;;5074240;28;20256;-77
2022/10/16 09:18:33;;;;;;;;;;;22.20;97.20;;;;;;5073490;28;19984;-76
2022/10/16 09:21:06;;;;;;;;;;;22.40;96.00;;;;;;5089656;28;20360;-78
2022/10/16 09:23:34;;;;;;;;;;;22.50;96.00;;;;;;5074105;28;19908;-77
2022/10/16 09:26:01;;;;;;;;;;;22.70;95.50;;;;;;5084641;28;19904;-77
2022/10/16 09:28:26;;;;;;;;;;;22.90;94.60;;;;;;5093983;28;19908;-77
2022/10/16 09:30:52;;;;;;;;;;;22.80;94.50;;;;;;5076018;28;19926;-78
2022/10/16 09:33:22;;;;;;;;;;;22.80;94.30;;;;;;5093711;28;19911;-77
2022/10/16 09:35:51;;;;;;;;;;;22.70;94.40;;;;;;5073618;28;19919;-78
2022/10/16 09:38:21;;;;;;;;;;;22.60;94.90;;;;;;5073872;28;20255;-77
2022/10/16 09:40:47;;;;;;;;;;;22.70;94.90;;;;;;5073500;28;20325;-77
2022/10/16 09:43:15;;;;;;;;;;;22.70;94.20;;;;;;5073492;28;19931;-76
2022/10/16 09:45:41;;;;;;;;;;;22.80;93.40;;;;;;5073860;28;19995;-76
2022/10/16 09:48:11;;;;;;;;;;;22.80;92.50;;;;;;5055413;28;20316;-78
2022/10/16 09:50:36;;;;;;;;;;;22.50;93.30;;;;;;5073646;28;19908;-77
2022/10/16 09:53:06;;;;;;;;;;;22.50;93.30;;;;;;5073528;28;20383;-77
2022/10/16 09:55:31;;;;;;;;;;;22.40;93.20;;;;;;5073545;28;19966;-77
2022/10/16 09:57:57;;;;;;;;;;;22.40;93.30;;;;;;5055432;28;20282;-77
2022/10/16 10:00:23;;;;;;;;;;;22.70;93.30;;;;;;5072969;28;19910;-78
2022/10/16 10:02:49;;;;;;;;;;;22.90;93.10;;;;;;5073744;28;20247;-77
2022/10/16 10:05:20;;;;;;;;;;;23.10;92.70;;;;;;5073249;28;19908;-79
2022/10/16 10:07:52;;;;;;;;;;;23.30;93.10;;;;;;5073408;28;19919;-78
2022/10/16 10:10:28;;;;;;;;;;;23.50;92.40;;;;;;5073604;28;19908;-78
2022/10/16 10:12:54;;;;;;;;;;;23.50;92.30;;;;;;5072855;28;19921;-78
2022/10/16 10:15:21;;;;;;;;;;;23.30;92.80;;;;;;5072810;28;19912;-77
2022/10/16 10:17:47;;;;;;;;;;;23.40;92.70;;;;;;5073483;28;19943;-77
2022/10/16 10:20:21;;;;;;;;;;;23.30;93.00;;;;;;5073390;28;19927;-78
2022/10/16 10:22:47;;;;;;;;;;;23.10;93.40;;;;;;5073311;28;19912;-78
2022/10/16 10:25:12;;;;;;;;;;;22.80;93.10;;;;;;5073692;28;19908;-79
2022/10/16 10:27:38;;;;;;;;;;;22.40;93.20;;;;;;5073085;28;19905;-77
2022/10/16 10:30:17;;;;;;;;;;;22.10;93.60;;;;;;5073421;28;20287;-77
2022/10/16 10:32:51;;;;;;;;;;;21.80;94.10;;;;;;5073495;28;19905;-78
2022/10/16 10:35:21;;;;;;;;;;;21.70;94.40;;;;;;5072897;28;19909;-76
2022/10/16 10:37:56;;;;;;;;;;;21.90;94.50;;;;;;5072543;28;20007;-78
2022/10/16 10:40:34;;;;;;;;;;;21.80;94.40;;;;;;5073039;28;19904;-78
2022/10/16 10:43:04;;;;;;;;;;;21.40;94.70;;;;;;5073004;28;19908;-77
2022/10/16 10:45:39;;;;;;;;;;;21.30;95.10;;;;;;5072927;28;19904;-77
2022/10/16 10:48:23;;;;;;;;;;;21.60;95.00;;;;;;5072461;28;19908;-77
2022/10/16 10:51:04;;;;;;;;;;;22.20;93.80;;;;;;5072604;28;20252;-77
2022/10/16 10:53:48;;;;;;;;;;;22.60;93.90;;;;;;5072815;28;19904;-77
2022/10/16 10:56:13;;;;;;;;;;;23.10;93.40;;;;;;5072658;28;19913;-78
2022/10/16 10:58:46;;;;;;;;;;;23.80;92.70;;;;;;5072628;28;20399;-78
2022/10/16 11:01:13;;;;;;;;;;;24.20;91.90;;;;;;5072841;28;19957;-77
2022/10/16 11:04:03;;;;;;;;;;;24.30;91.40;;;;;;5072709;28;19955;-77
2022/10/16 11:06:32;;;;;;;;;;;23.80;91.50;;;;;;5072688;28;20352;-77
2022/10/16 11:08:58;;;;;;;;;;;23.40;92.20;;;;;;5072798;28;19915;-77
2022/10/16 11:11:27;;;;;;;;;;;23.20;92.70;;;;;;5070455;28;19905;-77
2022/10/16 11:14:05;;;;;;;;;;;23.50;92.70;;;;;;5072543;28;19927;-77
2022/10/16 11:16:36;;;;;;;;;;;23.90;92.60;;;;;;5071696;28;19917;-77
2022/10/16 11:19:20;;;;;;;;;;;24.20;91.30;;;;;;5072167;28;19905;-77
2022/10/16 11:21:50;;;;;;;;;;;23.90;91.80;;;;;;5071535;28;20016;-77
2022/10/16 11:24:21;;;;;;;;;;;23.80;92.20;;;;;;5072568;28;19908;-76
2022/10/16 11:26:50;;;;;;;;;;;24.00;91.90;;;;;;5072371;28;20279;-77
2022/10/16 11:29:31;;;;;;;;;;;24.50;91.80;;;;;;5072622;28;19915;-77
2022/10/16 11:32:00;;;;;;;;;;;24.70;91.20;;;;;;5072080;28;19905;-76
2022/10/16 11:34:32;;;;;;;;;;;24.90;91.00;;;;;;5072275;28;20368;-76
2022/10/16 11:36:57;;;;;;;;;;;25.10;90.30;;;;;;5072176;28;19933;-75
2022/10/16 11:39:27;;;;;;;;;;;25.10;90.50;;;;;;5072367;28;19908;-75
2022/10/16 11:41:55;;;;;;;;;;;25.10;90.70;;;;;;5072623;28;19909;-75
2022/10/16 11:44:47;;;;;;;;;;;25.10;90.40;;;;;;5072092;28;20003;-75
2022/10/16 11:47:31;;;;;;;;;;;25.40;90.40;;;;;;5055908;28;20344;-75
2022/10/16 11:50:16;;;;;;;;;;;25.60;89.90;;;;;;5072838;28;19904;-74
2022/10/16 11:53:02;;;;;;;;;;;25.40;90.30;;;;;;5068473;28;19905;-75
2022/10/16 11:55:32;;;;;;;;;;;25.30;90.00;;;;;;5053920;28;19912;-74
2022/10/16 11:58:02;;;;;;;;;;;25.00;90.30;;;;;;5075888;28;19904;-73
2022/10/16 12:00:30;;;;;;;;;;;24.70;90.30;;;;;;5075372;28;19918;-73
2022/10/16 12:03:00;;;;;;;;;;;24.30;91.20;;;;;;5074640;28;19912;-74
2022/10/16 12:05:34;;;;;;;;;;;24.50;90.70;;;;;;5075444;28;19905;-73
2022/10/16 12:08:06;;;;;;;;;;;24.50;90.40;;;;;;5072592;28;19908;-72
2022/10/16 12:10:36;;;;;;;;;;;24.20;90.00;;;;;;5075063;28;19940;-73
2022/10/16 12:13:02;;;;;;;;;;;23.90;90.10;;;;;;5072558;28;19942;-73
2022/10/16 12:15:30;;;;;;;;;;;23.70;90.80;;;;;;5074864;28;19908;-72
2022/10/16 12:17:55;;;;;;;;;;;23.50;91.70;;;;;;5074762;28;19908;-74
2022/10/16 12:20:23;;;;;;;;;;;23.50;91.10;;;;;;5074904;28;19911;-74
2022/10/16 12:22:50;;;;;;;;;;;23.40;90.70;;;;;;5074914;28;20003;-71
2022/10/16 12:25:28;;;;;;;;;;;23.30;91.20;;;;;;5074759;28;19908;-72
2022/10/16 12:27:54;;;;;;;;;;;23.40;91.50;;;;;;5074458;28;19927;-72
2022/10/16 12:30:24;;;;;;;;;;;23.50;91.30;;;;;;5075133;28;20414;-73
2022/10/16 12:32:55;;;;;;;;;;;23.40;91.60;;;;;;5074697;28;19908;-73
2022/10/16 12:35:22;;;;;;;;;;;23.40;91.40;;;;;;5072077;28;19951;-72
2022/10/16 12:37:48;;;;;;;;;;;23.30;91.60;;;;;;5056564;28;20362;-72
2022/10/16 12:40:16;;;;;;;;;;;23.00;90.90;;;;;;5074546;28;19916;-71
2022/10/16 12:42:41;;;;;;;;;;;22.80;91.60;;;;;;5074454;28;19912;-72
2022/10/16 12:45:23;;;;;;;;;;;22.80;91.80;;;;;;5074438;28;20229;-72
2022/10/16 12:47:50;;;;;;;;;;;22.70;91.80;;;;;;5072998;28;20360;-72
2022/10/16 12:50:42;;;;;;;;;;;22.50;91.90;;;;;;5074329;28;20042;-71
2022/10/16 12:53:21;;;;;;;;;;;22.50;92.60;;;;;;5070631;28;20347;-71
2022/10/16 12:55:52;;;;;;;;;;;22.50;92.40;;;;;;5072483;28;19912;-71
2022/10/16 12:58:28;;;;;;;;;;;22.50;92.50;;;;;;5074095;28;20406;-71
2022/10/16 13:00:57;;;;;;;;;;;22.40;93.00;;;;;;5073650;28;19916;-72
2022/10/16 13:03:34;;;;;;;;;;;22.30;92.50;;;;;;5073977;28;20362;-72
2022/10/16 13:06:07;;;;;;;;;;;22.00;92.30;;;;;;5071110;28;19913;-71
2022/10/16 13:09:02;;;;;;;;;;;21.60;92.60;;;;;;5069292;28;19904;-72
2022/10/16 13:11:53;;;;;;;;;;;21.30;93.20;;;;;;5060191;28;19962;-73
2022/10/16 13:14:30;;;;;;;;;;;21.00;93.90;;;;;;5074445;28;19923;-71
2022/10/16 13:16:58;;;;;;;;;;;20.90;94.20;;;;;;5073962;28;19964;-71
2022/10/16 13:19:38;;;;;;;;;;;20.80;93.20;;;;;;5074154;28;19995;-71
2022/10/16 13:22:24;;;;;;;;;;;20.60;93.90;;;;;;5074202;28;19905;-73
2022/10/16 13:24:49;;;;;;;;;;;20.30;94.10;;;;;;5059297;28;19904;-71
2022/10/16 13:27:35;;;;;;;;;;;20.10;94.90;;;;;;5073936;28;20379;-73
2022/10/16 13:30:18;;;;;;;;;;;20.10;95.10;;;;;;5042426;28;19935;-71
2022/10/16 13:32:48;;;;;;;;;;;19.80;95.10;;;;;;5055483;28;19980;-70
2022/10/16 13:35:20;;;;;;;;;;;19.60;94.30;;;;;;5073847;28;19913;-70
2022/10/16 13:37:46;;;;;;;;;;;19.40;94.80;;;;;;5074373;28;19909;-71
2022/10/16 13:40:18;;;;;;;;;;;19.30;95.20;;;;;;5073780;28;19975;-71
2022/10/16 13:42:44;;;;;;;;;;;19.10;95.50;;;;;;5073918;28;19904;-71
2022/10/16 13:45:23;;;;;;;;;;;19.00;96.20;;;;;;5073304;28;19911;-71
2022/10/16 13:47:49;;;;;;;;;;;18.90;96.50;;;;;;5073538;28;19912;-71
2022/10/16 13:50:16;;;;;;;;;;;18.90;97.00;;;;;;5073430;28;20263;-71
2022/10/16 13:52:42;;;;;;;;;;;18.90;97.20;;;;;;5073088;28;19905;-71
2022/10/16 13:55:15;;;;;;;;;;;19.00;97.00;;;;;;5073180;28;19916;-71
2022/10/16 13:57:41;;;;;;;;;;;19.00;97.10;;;;;;5073269;28;19913;-71
2022/10/16 14:00:22;;;;;;;;;;;19.10;97.50;;;;;;5072721;28;19998;-71
2022/10/16 14:02:57;;;;;;;;;;;19.20;97.10;;;;;;5073064;28;19927;-71
2022/10/16 14:05:22;;;;;;;;;;;19.10;97.70;;;;;;5072652;28;19905;-72
2022/10/16 14:07:51;;;;;;;;;;;19.10;97.10;;;;;;5073560;28;19995;-71
2022/10/16 14:10:35;;;;;;;;;;;19.10;97.20;;;;;;5072839;28;19904;-70
2022/10/16 14:13:01;;;;;;;;;;;19.10;97.60;;;;;;5054284;28;19927;-72
2022/10/16 14:15:27;;;;;;;;;;;19.10;97.30;;;;;;5072649;28;19908;-71
2022/10/16 14:17:53;;;;;;;;;;;19.10;97.60;;;;;;5073199;28;19977;-71
2022/10/16 14:20:19;;;;;;;;;;;19.20;97.50;;;;;;5073083;28;19908;-73
2022/10/16 14:22:46;;;;;;;;;;;19.20;97.10;;;;;;5054746;28;20478;-71
2022/10/16 14:25:26;;;;;;;;;;;19.20;96.90;;;;;;5072763;28;20789;-70